createdAt,value
2018-11-11T00:28:14.386Z,13.10
2018-11-11T00:30:43.885Z,13.20
2018-11-11T00:33:12.975Z,13.20
2018-11-11T00:35:42.383Z,13.20
2018-11-11T00:38:11.434Z,13.20
2018-11-11T00:40:40.946Z,13.20
2018-11-11T00:43:10.859Z,13.30
2018-11-11T00:45:40.912Z,13.30
2018-11-11T00:48:10.668Z,13.20
2018-11-11T00:50:40.620Z,13.20
2018-11-11T00:53:10.089Z,13.20
2018-11-11T00:55:42.009Z,13.20
2018-11-11T00:58:12.003Z,13.10
2018-11-11T01:00:44.745Z,13.10
2018-11-11T01:03:14.436Z,13.20
2018-11-11T01:05:46.204Z,13.20
2018-11-11T01:08:15.314Z,13.20
2018-11-11T01:10:52.883Z,13.20
2018-11-11T01:13:22.295Z,13.20
2018-11-11T01:15:52.483Z,13.10
2018-11-11T01:18:21.804Z,13.20
2018-11-11T01:20:54.948Z,13.20
2018-11-11T01:23:24.080Z,13.10
2018-11-11T01:25:57.480Z,13.10
2018-11-11T01:28:26.630Z,13.00
2018-11-11T01:31:00.680Z,13.10
2018-11-11T01:33:30.056Z,13.10
2018-11-11T01:36:03.303Z,13.10
2018-11-11T01:38:32.381Z,13.00
2018-11-11T01:41:06.922Z,13.00
2018-11-11T01:43:36.145Z,13.10
2018-11-11T01:46:10.132Z,13.10
2018-11-11T01:48:39.557Z,13.10
2018-11-11T01:51:13.568Z,13.10
2018-11-11T01:53:43.570Z,13.10
2018-11-11T01:56:15.520Z,13.10
2018-11-11T01:58:44.731Z,13.00
2018-11-11T02:01:17.809Z,13.00
2018-11-11T02:03:47.118Z,13.00
2018-11-11T02:06:19.932Z,13.00
2018-11-11T02:08:50.023Z,13.00
2018-11-11T02:11:22.923Z,13.10
2018-11-11T02:13:52.101Z,13.10
2018-11-11T02:16:24.902Z,13.10
2018-11-11T02:18:54.091Z,13.10
2018-11-11T02:21:27.192Z,13.10
2018-11-11T02:23:56.296Z,13.00
2018-11-11T02:26:30.488Z,13.00
2018-11-11T02:28:59.568Z,13.00
2018-11-11T02:31:31.560Z,13.00
2018-11-11T02:34:00.945Z,13.00
2018-11-11T02:36:34.499Z,12.90
2018-11-11T02:39:03.935Z,12.90
2018-11-11T02:41:36.925Z,12.90
2018-11-11T02:44:06.047Z,12.90
2018-11-11T02:46:39.627Z,12.80
2018-11-11T02:49:08.682Z,12.90
2018-11-11T02:51:42.867Z,12.90
2018-11-11T02:54:12.281Z,12.80
2018-11-11T02:56:44.005Z,12.90
2018-11-11T02:59:13.117Z,12.90
2018-11-11T03:01:47.419Z,12.90
2018-11-11T03:04:16.508Z,12.80
2018-11-11T03:06:50.437Z,12.80
2018-11-11T03:09:19.503Z,12.80
2018-11-11T03:11:52.927Z,12.80
2018-11-11T03:14:21.947Z,12.80
2018-11-11T03:16:55.625Z,12.80
2018-11-11T03:19:25.210Z,12.70
2018-11-11T03:21:57.808Z,12.70
2018-11-11T03:24:26.962Z,12.70
2018-11-11T03:27:01.170Z,12.70
2018-11-11T03:29:30.190Z,12.70
2018-11-11T03:32:04.529Z,12.70
2018-11-11T03:34:33.521Z,12.70
2018-11-11T03:37:06.582Z,12.80
2018-11-11T03:39:35.859Z,12.70
2018-11-11T03:42:11.329Z,12.70
2018-11-11T03:44:40.394Z,12.70
2018-11-11T03:47:14.163Z,12.70
2018-11-11T03:49:43.186Z,12.70
2018-11-11T03:52:16.039Z,12.70
2018-11-11T03:54:45.221Z,12.70
2018-11-11T03:57:18.179Z,12.60
2018-11-11T03:59:47.195Z,12.60
2018-11-11T04:02:20.795Z,12.70
2018-11-11T04:04:50.117Z,12.70
2018-11-11T04:07:22.774Z,12.70
2018-11-11T04:09:51.802Z,12.80
2018-11-11T04:12:25.091Z,12.70
2018-11-11T04:14:54.204Z,12.70
2018-11-11T04:17:27.535Z,12.70
2018-11-11T04:19:56.513Z,12.70
2018-11-11T04:22:29.723Z,12.70
2018-11-11T04:24:59.028Z,12.70
2018-11-11T04:27:32.390Z,12.70
2018-11-11T04:30:01.988Z,12.60
2018-11-11T04:32:34.253Z,12.70
2018-11-11T04:35:03.402Z,12.70
2018-11-11T04:37:36.924Z,12.80
2018-11-11T04:40:08.288Z,12.80
2018-11-11T04:42:39.728Z,12.80
2018-11-11T04:45:10.407Z,12.80
2018-11-11T04:47:42.651Z,12.80
2018-11-11T04:50:13.264Z,12.80
2018-11-11T04:52:45.116Z,12.70
2018-11-11T04:55:14.618Z,12.80
2018-11-11T04:57:47.907Z,12.70
2018-11-11T05:00:17.015Z,12.70
2018-11-11T05:02:50.266Z,12.70
2018-11-11T05:05:19.334Z,12.70
2018-11-11T05:07:53.320Z,12.70
2018-11-11T05:10:22.299Z,12.70
2018-11-11T05:12:56.635Z,12.60
2018-11-11T05:15:26.090Z,12.60
2018-11-11T05:17:59.695Z,12.50
2018-11-11T05:20:28.767Z,12.50
2018-11-11T05:23:02.120Z,12.50
2018-11-11T05:25:31.653Z,12.50
2018-11-11T05:28:07.856Z,12.40
2018-11-11T05:30:36.952Z,12.40
2018-11-11T05:33:08.506Z,12.40
2018-11-11T05:35:37.767Z,12.50
2018-11-11T05:38:11.126Z,12.50
2018-11-11T05:40:40.150Z,12.50
2018-11-11T05:43:15.173Z,12.50
2018-11-11T05:45:44.205Z,12.50
2018-11-11T05:48:16.770Z,12.40
2018-11-11T05:50:45.847Z,12.50
2018-11-11T05:53:18.924Z,12.50
2018-11-11T05:55:51.662Z,12.40
2018-11-11T05:58:21.623Z,12.40
2018-11-11T06:00:50.647Z,12.30
2018-11-11T06:03:23.639Z,12.40
2018-11-11T06:05:52.670Z,12.40
2018-11-11T06:08:25.184Z,12.50
2018-11-11T06:10:54.494Z,12.50
2018-11-11T06:13:27.754Z,12.50
2018-11-11T06:15:56.758Z,12.50
2018-11-11T06:18:30.838Z,12.40
2018-11-11T06:21:00.417Z,12.40
2018-11-11T06:23:33.214Z,12.40
2018-11-11T06:26:03.567Z,12.40
2018-11-11T06:28:36.811Z,12.40
2018-11-11T06:31:06.042Z,12.40
2018-11-11T06:33:38.805Z,12.40
2018-11-11T06:36:07.931Z,12.30
2018-11-11T06:38:39.376Z,12.30
2018-11-11T06:41:08.407Z,12.30
2018-11-11T06:43:42.975Z,12.30
2018-11-11T06:46:12.367Z,12.30
2018-11-11T06:48:44.635Z,12.30
2018-11-11T06:51:13.656Z,12.30
2018-11-11T06:53:47.943Z,12.20
2018-11-11T06:56:16.982Z,12.30
2018-11-11T06:58:49.767Z,12.30
2018-11-11T07:01:19.100Z,12.30
2018-11-11T07:03:55.844Z,12.30
2018-11-11T07:06:25.300Z,12.40
2018-11-11T07:08:58.235Z,12.40
2018-11-11T07:11:28.322Z,12.50
2018-11-11T07:14:00.787Z,12.40
2018-11-11T07:16:29.797Z,12.40
2018-11-11T07:19:03.724Z,12.40
2018-11-11T07:21:33.367Z,12.40
2018-11-11T07:24:06.018Z,12.50
2018-11-11T07:26:35.002Z,12.50
2018-11-11T07:29:08.570Z,12.50
2018-11-11T07:31:37.790Z,12.50
2018-11-11T07:34:12.066Z,12.50
2018-11-11T07:36:41.662Z,12.60
2018-11-11T07:39:16.033Z,12.60
2018-11-11T07:41:45.109Z,12.70
2018-11-11T07:44:22.070Z,12.70
2018-11-11T07:46:51.442Z,12.70
2018-11-11T07:49:22.422Z,12.70
2018-11-11T07:51:53.353Z,12.60
2018-11-11T07:54:23.742Z,12.70
2018-11-11T07:56:53.382Z,12.70
2018-11-11T07:59:24.215Z,12.70
2018-11-11T08:01:53.323Z,12.70
2018-11-11T08:04:25.851Z,12.80
2018-11-11T08:06:56.577Z,12.80
2018-11-11T08:09:28.225Z,12.80
2018-11-11T08:12:03.808Z,12.80
2018-11-11T08:14:33.330Z,12.90
2018-11-11T08:17:02.896Z,12.90
2018-11-11T08:19:33.987Z,12.90
2018-11-11T08:22:03.760Z,12.90
2018-11-11T08:24:35.966Z,13.00
2018-11-11T08:27:05.211Z,13.10
2018-11-11T08:29:37.977Z,13.10
2018-11-11T08:32:07.652Z,13.00
2018-11-11T08:34:45.696Z,13.10
2018-11-11T08:37:19.543Z,13.00
2018-11-11T08:39:49.292Z,12.90
2018-11-11T08:42:18.311Z,13.00
2018-11-11T08:44:48.440Z,12.90
2018-11-11T08:47:17.536Z,13.00
2018-11-11T08:49:49.128Z,13.00
2018-11-11T08:52:19.150Z,13.10
2018-11-11T08:54:51.502Z,13.20
2018-11-11T08:57:21.017Z,13.30
2018-11-11T08:59:55.078Z,13.60
2018-11-11T09:02:24.284Z,14.70
2018-11-11T09:04:58.763Z,15.60
2018-11-11T09:07:28.467Z,16.40
2018-11-11T09:10:01.830Z,16.00
2018-11-11T09:12:31.552Z,15.80
2018-11-11T09:15:07.709Z,15.30
2018-11-11T09:17:37.279Z,14.90
2018-11-11T09:20:15.756Z,14.60
2018-11-11T09:22:45.016Z,15.10
2018-11-11T09:25:14.143Z,16.90
2018-11-11T09:27:43.715Z,18.80
2018-11-11T09:30:16.835Z,20.70
2018-11-11T09:32:46.056Z,22.80
2018-11-11T09:35:22.768Z,23.90
2018-11-11T09:37:52.385Z,23.60
2018-11-11T09:40:21.619Z,22.80
2018-11-11T09:42:52.791Z,23.10
2018-11-11T09:45:22.572Z,22.50
2018-11-11T09:47:52.573Z,22.60
2018-11-11T09:50:30.652Z,22.90
2018-11-11T09:53:01.713Z,22.60
2018-11-11T09:55:32.042Z,22.30
2018-11-11T09:58:01.796Z,22.70
2018-11-11T10:00:31.383Z,22.60
2018-11-11T10:03:04.760Z,21.70
2018-11-11T10:05:54.748Z,21.60
2018-11-11T10:08:36.640Z,21.40
2018-11-11T10:11:11.288Z,20.40
2018-11-11T10:23:23.383Z,19.60
2018-11-11T10:25:58.565Z,18.50
2018-11-11T10:32:16.350Z,16.60
2018-11-11T10:34:54.611Z,16.10
2018-11-11T10:37:29.848Z,15.80
2018-11-11T10:40:10.289Z,15.80
2018-11-11T10:42:53.578Z,16.00
2018-11-11T10:45:29.390Z,16.20
2018-11-11T10:48:09.040Z,16.30
2018-11-11T10:50:43.658Z,16.20
2018-11-11T10:53:14.543Z,16.10
2018-11-11T10:55:45.592Z,16.10
2018-11-11T10:58:17.344Z,16.00
2018-11-11T11:01:01.362Z,16.00
2018-11-11T11:03:31.749Z,15.90
2018-11-11T11:06:05.255Z,15.80
2018-11-11T11:08:34.629Z,15.70
2018-11-11T11:11:06.733Z,15.50
2018-11-11T11:13:36.314Z,15.50
2018-11-11T11:16:09.226Z,15.40
2018-11-11T11:18:38.337Z,15.50
2018-11-11T11:21:16.584Z,15.50
2018-11-11T11:23:49.903Z,15.50
2018-11-11T11:26:20.315Z,15.40
2018-11-11T11:28:50.614Z,15.40
2018-11-11T11:31:20.503Z,15.40
2018-11-11T11:33:49.999Z,15.30
2018-11-11T11:36:23.069Z,15.30
2018-11-11T11:38:52.255Z,15.30
2018-11-11T11:41:25.144Z,15.30
2018-11-11T11:43:54.817Z,15.30
2018-11-11T11:46:26.325Z,15.20
2018-11-11T11:48:59.035Z,15.20
2018-11-11T11:51:29.369Z,15.10
2018-11-11T11:53:58.818Z,15.10
2018-11-11T11:56:32.059Z,14.90
2018-11-11T11:59:01.614Z,14.80
2018-11-11T12:01:36.419Z,14.70
2018-11-11T12:04:10.095Z,14.80
2018-11-11T12:06:40.585Z,14.60
2018-11-11T12:09:12.081Z,14.60
2018-11-11T12:11:45.087Z,14.60
2018-11-11T12:14:15.236Z,14.50
2018-11-11T12:16:45.922Z,14.50
2018-11-11T12:19:16.647Z,14.40
2018-11-11T12:21:46.054Z,14.50
2018-11-11T12:24:16.401Z,14.30
2018-11-11T12:26:45.885Z,14.30
2018-11-11T12:29:16.996Z,14.30
2018-11-11T12:31:52.256Z,14.40
2018-11-11T12:34:24.263Z,14.30
2018-11-11T12:36:53.548Z,14.20
2018-11-11T12:39:24.712Z,14.20
2018-11-11T12:41:57.377Z,14.10
2018-11-11T12:44:29.076Z,14.10
2018-11-11T12:47:03.019Z,14.10
2018-11-11T12:49:33.642Z,14.10
2018-11-11T12:52:03.141Z,14.10
2018-11-11T12:54:33.810Z,14.00
2018-11-11T12:57:03.765Z,14.00
2018-11-11T12:59:33.725Z,13.90
2018-11-11T13:02:07.526Z,13.90
2018-11-11T13:04:37.280Z,13.80
2018-11-11T13:07:07.869Z,13.60
2018-11-11T13:09:37.263Z,13.60
2018-11-11T13:12:10.381Z,13.60
2018-11-11T13:14:41.793Z,13.60
2018-11-11T13:17:14.122Z,13.50
2018-11-11T13:19:44.600Z,13.30
2018-11-11T13:22:18.359Z,13.30
2018-11-11T13:24:49.698Z,13.20
2018-11-11T13:27:18.898Z,13.00
2018-11-11T13:29:49.441Z,13.00
2018-11-11T13:32:23.442Z,13.00
2018-11-11T13:34:53.324Z,13.00
2018-11-11T13:37:25.664Z,13.00
2018-11-11T13:39:56.284Z,12.90
2018-11-11T13:42:28.201Z,13.00
2018-11-11T13:44:58.010Z,12.90
2018-11-11T13:47:30.408Z,12.80
2018-11-11T13:50:05.323Z,12.80
2018-11-11T13:52:35.518Z,12.80
2018-11-11T13:55:06.913Z,12.90
2018-11-11T13:57:37.180Z,12.90
2018-11-11T14:01:36.804Z,12.90
2018-11-11T14:04:07.289Z,12.90
2018-11-11T14:06:47.664Z,12.90
2018-11-11T14:09:21.313Z,13.00
2018-11-11T14:11:53.698Z,13.00
2018-11-11T14:14:23.918Z,13.00
2018-11-11T14:16:53.160Z,13.00
2018-11-11T14:19:24.593Z,13.10
2018-11-11T14:21:56.712Z,13.10
2018-11-11T14:24:27.137Z,13.20
2018-11-11T14:26:58.067Z,13.20
2018-11-11T14:29:28.328Z,13.20
2018-11-11T14:31:58.402Z,13.20
2018-11-11T14:34:28.995Z,13.30
2018-11-11T14:36:59.729Z,13.30
2018-11-11T14:39:29.689Z,13.20
2018-11-11T14:42:01.018Z,13.10
2018-11-11T14:44:35.450Z,13.20
2018-11-11T14:47:06.829Z,13.20
2018-11-11T14:49:38.068Z,13.20
2018-11-11T14:52:08.896Z,13.20
2018-11-11T14:54:42.805Z,13.30
2018-11-11T14:57:14.444Z,13.30
2018-11-11T14:59:45.004Z,13.30
2018-11-11T15:02:16.034Z,13.30
2018-11-11T15:04:46.741Z,13.20
2018-11-11T15:07:17.898Z,13.20
2018-11-11T15:09:49.972Z,13.20
2018-11-11T15:12:19.580Z,13.10
2018-11-11T15:14:50.978Z,13.20
2018-11-11T15:17:20.524Z,13.20
2018-11-11T15:19:54.309Z,13.30
2018-11-11T15:22:25.194Z,13.20
2018-11-11T15:24:55.815Z,13.20
2018-11-11T15:27:26.560Z,13.10
2018-11-11T15:29:57.332Z,13.10
2018-11-11T15:32:26.722Z,13.10
2018-11-11T15:34:57.226Z,13.20
2018-11-11T15:37:29.521Z,13.20
2018-11-11T15:39:59.950Z,13.20
2018-11-11T15:42:32.138Z,13.20
2018-11-11T15:45:05.370Z,13.20
2018-11-11T15:47:38.521Z,13.20
2018-11-11T15:50:13.960Z,13.30
2018-11-11T15:52:48.111Z,13.20
2018-11-11T15:55:19.774Z,13.30
2018-11-11T15:57:49.847Z,13.30
2018-11-11T16:00:23.045Z,13.30
2018-11-11T16:02:53.313Z,13.30
2018-11-11T16:05:23.762Z,13.40
2018-11-11T16:07:55.987Z,13.40
2018-11-11T16:10:26.756Z,13.40
2018-11-11T16:12:57.020Z,13.40
2018-11-11T16:15:32.111Z,13.40
2018-11-11T16:18:03.130Z,13.40
2018-11-11T16:20:34.001Z,13.40
2018-11-11T16:23:05.563Z,13.40
2018-11-11T16:25:35.565Z,13.40
2018-11-11T16:28:06.726Z,13.30
2018-11-11T16:30:38.214Z,13.40
2018-11-11T16:33:09.375Z,13.30
2018-11-11T16:35:41.347Z,13.40
2018-11-11T16:38:14.555Z,13.30
2018-11-11T16:40:45.226Z,13.30
2018-11-11T16:43:15.909Z,13.30
2018-11-11T16:45:46.086Z,13.30
2018-11-11T16:48:15.875Z,13.20
2018-11-11T16:50:46.209Z,13.30
2018-11-11T16:53:16.399Z,13.30
2018-11-11T16:55:47.124Z,13.30
2018-11-11T16:58:20.729Z,13.30
2018-11-11T17:00:51.621Z,13.40
2018-11-11T17:03:21.374Z,13.30
2018-11-11T17:05:51.431Z,13.30
2018-11-11T17:08:27.456Z,13.40
2018-11-11T17:10:58.486Z,13.40
2018-11-11T17:13:29.155Z,13.40
2018-11-11T17:18:47.324Z,13.30
2018-11-11T17:21:25.937Z,13.40
2018-11-11T17:23:55.553Z,13.50
2018-11-11T17:26:31.314Z,13.40
2018-11-11T17:29:03.013Z,13.40
2018-11-11T17:31:33.777Z,13.40
2018-11-11T17:34:05.965Z,13.50
2018-11-11T17:36:35.854Z,13.40
2018-11-11T17:39:10.063Z,13.40
2018-11-11T17:41:41.069Z,13.30
2018-11-11T17:44:11.277Z,13.30
2018-11-11T17:46:42.344Z,13.20
2018-11-11T17:49:13.640Z,13.20
2018-11-11T17:51:48.266Z,13.20
2018-11-11T17:54:21.720Z,13.10
2018-11-11T17:56:51.303Z,13.10
2018-11-11T17:59:21.726Z,13.10
2018-11-11T18:01:53.853Z,13.10
2018-11-11T18:04:23.439Z,13.10
2018-11-11T18:06:55.134Z,13.10
2018-11-11T18:09:25.040Z,13.10
2018-11-11T18:11:54.443Z,13.00
2018-11-11T18:14:25.384Z,13.00
2018-11-11T18:16:55.718Z,13.10
2018-11-11T18:19:28.051Z,13.10
2018-11-11T18:21:58.525Z,13.10
2018-11-11T18:24:28.804Z,13.10
2018-11-11T18:26:58.302Z,13.10
2018-11-11T18:29:29.412Z,13.10
2018-11-11T18:32:02.761Z,13.00
2018-11-11T18:34:34.748Z,13.10
2018-11-11T18:37:06.338Z,13.00
2018-11-11T18:39:36.606Z,13.00
2018-11-11T18:42:08.708Z,13.10
2018-11-11T18:44:42.170Z,13.10
2018-11-11T18:47:12.536Z,13.10
2018-11-11T18:49:43.451Z,13.00
2018-11-11T18:52:14.740Z,13.10
2018-11-11T18:54:45.401Z,13.10
2018-11-11T18:57:17.088Z,13.20
2018-11-11T18:59:48.186Z,13.20
2018-11-11T19:02:18.520Z,13.20
2018-11-11T19:04:47.795Z,13.10
2018-11-11T19:07:20.643Z,13.10
2018-11-11T19:09:49.967Z,13.00
2018-11-11T19:12:22.819Z,13.00
2018-11-11T19:14:52.699Z,13.00
2018-11-11T19:17:26.711Z,13.00
2018-11-11T19:19:57.115Z,12.90
2018-11-11T19:22:28.816Z,12.80
2018-11-11T19:24:58.186Z,12.80
2018-11-11T19:27:32.150Z,12.90
2018-11-11T19:30:02.954Z,12.90
2018-11-11T19:32:33.586Z,12.90
2018-11-11T19:35:06.393Z,12.90
2018-11-11T19:37:38.467Z,12.90
2018-11-11T19:40:12.025Z,13.00
2018-11-11T19:42:42.593Z,12.90
2018-11-11T19:45:15.550Z,12.90
2018-11-11T19:47:45.901Z,12.80
2018-11-11T19:50:19.447Z,12.70
2018-11-11T19:52:51.171Z,12.70
2018-11-11T19:55:22.717Z,12.80
2018-11-11T19:57:54.406Z,12.80
2018-11-11T20:00:29.157Z,12.80
2018-11-11T20:03:00.397Z,12.80
2018-11-11T20:05:33.792Z,12.60
2018-11-11T20:08:05.983Z,12.60
2018-11-11T20:10:36.479Z,12.60
2018-11-11T20:13:08.586Z,12.60
2018-11-11T20:15:42.651Z,12.60
2018-11-11T20:18:13.034Z,12.60
2018-11-11T20:20:43.749Z,12.50
2018-11-11T20:23:15.294Z,12.60
2018-11-11T20:25:44.943Z,12.40
2018-11-11T20:28:15.769Z,12.50
2018-11-11T20:30:45.855Z,12.40
2018-11-11T20:33:16.913Z,12.40
2018-11-11T20:35:46.975Z,12.40
2018-11-11T20:38:17.594Z,12.40
2018-11-11T20:40:48.757Z,12.40
2018-11-11T20:43:18.478Z,12.40
2018-11-11T20:45:48.733Z,12.40
2018-11-11T20:48:21.059Z,12.40
2018-11-11T20:50:51.748Z,12.30
2018-11-11T20:53:22.731Z,12.30
2018-11-11T20:55:53.925Z,12.30
2018-11-11T20:58:25.577Z,12.40
2018-11-11T21:00:58.210Z,12.40
2018-11-11T21:03:28.399Z,12.30
2018-11-11T21:05:59.074Z,12.30
2018-11-11T21:08:31.180Z,12.30
2018-11-11T21:11:02.002Z,12.30
2018-11-11T21:13:33.451Z,12.30
2018-11-11T21:16:03.978Z,12.20
2018-11-11T21:18:34.818Z,12.20
2018-11-11T21:21:05.280Z,12.30
2018-11-11T21:23:35.883Z,12.20
2018-11-11T21:26:06.138Z,12.30
2018-11-11T21:28:38.614Z,12.20
2018-11-11T21:31:09.201Z,12.30
2018-11-11T21:33:39.126Z,12.30
2018-11-11T21:36:09.218Z,12.30
2018-11-11T21:38:40.479Z,12.30
2018-11-11T21:41:11.297Z,12.40
2018-11-11T21:43:43.661Z,12.40
2018-11-11T21:46:14.411Z,12.50
2018-11-11T21:48:45.243Z,12.50
2018-11-11T21:51:19.501Z,12.50
2018-11-11T21:53:50.177Z,12.50
2018-11-11T21:56:21.528Z,12.60
2018-11-11T21:58:52.599Z,12.60
2018-11-11T22:01:22.942Z,12.50
2018-11-11T22:03:52.858Z,12.60
2018-11-11T22:06:23.371Z,12.60
2018-11-11T22:08:55.206Z,12.50
2018-11-11T22:11:27.808Z,12.50
2018-11-11T22:13:58.545Z,12.50
2018-11-11T22:16:28.148Z,12.50
2018-11-11T22:19:00.808Z,12.50
2018-11-11T22:21:31.230Z,12.50
2018-11-11T22:24:02.773Z,12.50
2018-11-11T22:26:37.003Z,12.50
2018-11-11T22:29:08.944Z,12.50
2018-11-11T22:31:39.023Z,12.60
2018-11-11T22:34:10.483Z,12.60
2018-11-11T22:36:41.719Z,12.60
2018-11-11T22:39:12.963Z,12.50
2018-11-11T22:41:42.448Z,12.50
2018-11-11T22:44:15.734Z,12.50
2018-11-11T22:46:45.456Z,12.50
2018-11-11T22:49:17.032Z,12.40
2018-11-11T22:51:46.626Z,12.50
2018-11-11T22:54:25.250Z,12.50
2018-11-11T22:56:54.605Z,12.50
2018-11-11T22:59:25.062Z,12.60
2018-11-11T23:01:56.846Z,12.60
2018-11-11T23:04:26.334Z,12.60
2018-11-11T23:06:55.865Z,12.60
2018-11-11T23:09:28.788Z,12.60
2018-11-11T23:11:58.028Z,12.60
2018-11-11T23:14:29.977Z,12.70
2018-11-11T23:17:00.692Z,12.70
2018-11-11T23:19:36.661Z,12.70
2018-11-11T23:22:05.993Z,12.70
2018-11-11T23:24:35.730Z,12.70
2018-11-11T23:27:06.088Z,12.70
2018-11-11T23:29:37.412Z,12.70
2018-11-11T23:32:07.216Z,12.70
2018-11-11T23:34:40.833Z,12.70
2018-11-11T23:37:11.905Z,12.70
2018-11-11T23:39:41.126Z,12.60
2018-11-11T23:42:10.784Z,12.60
2018-11-11T23:44:49.676Z,12.60
2018-11-11T23:47:19.163Z,12.60
2018-11-11T23:49:49.062Z,12.60
2018-11-11T23:52:20.139Z,12.60
2018-11-11T23:54:52.941Z,12.60
2018-11-11T23:57:22.663Z,12.60
2018-11-11T23:59:54.744Z,12.60
